sensor_id;sensor_type;location;lat;lon;timestamp;pressure;altitude;pressure_sealevel;temperature;humidity
16834;BME280;8533;48.426;10.868;2023-01-26T00:01:23;96576.98;;;-0.91;100.00
16834;BME280;8533;48.426;10.868;2023-01-26T00:03:52;96578.92;;;-0.89;100.00
16834;BME280;8533;48.426;10.868;2023-01-26T00:06:20;96586.30;;;-0.90;100.00
16834;BME280;8533;48.426;10.868;2023-01-26T00:08:50;96577.95;;;-0.92;100.00
16834;BME280;8533;48.426;10.868;2023-01-26T00:11:20;96579.70;;;-0.93;100.00
16834;BME280;8533;48.426;10.868;2023-01-26T00:13:50;96577.64;;;-0.97;100.00
16834;BME280;8533;48.426;10.868;2023-01-26T00:16:18;96580.69;;;-0.98;100.00
16834;BME280;8533;48.426;10.868;2023-01-26T00:18:46;96577.92;;;-0.88;100.00
16834;BME280;8533;48.426;10.868;2023-01-26T00:21:16;96564.77;;;-0.85;100.00
16834;BME280;8533;48.426;10.868;2023-01-26T00:23:44;96562.51;;;-0.80;100.00
16834;BME280;8533;48.426;10.868;2023-01-26T00:26:17;96566.84;;;-0.77;100.00
16834;BME280;8533;48.426;10.868;2023-01-26T00:28:46;96557.06;;;-0.77;100.00
16834;BME280;8533;48.426;10.868;2023-01-26T00:31:17;96564.60;;;-0.75;100.00
16834;BME280;8533;48.426;10.868;2023-01-26T00:33:44;96555.78;;;-0.73;100.00
16834;BME280;8533;48.426;10.868;2023-01-26T00:36:12;96564.14;;;-0.83;100.00
16834;BME280;8533;48.426;10.868;2023-01-26T00:38:40;96561.25;;;-0.84;100.00
16834;BME280;8533;48.426;10.868;2023-01-26T00:41:08;96558.52;;;-0.87;100.00
16834;BME280;8533;48.426;10.868;2023-01-26T00:43:38;96561.58;;;-0.91;100.00
16834;BME280;8533;48.426;10.868;2023-01-26T00:46:05;96563.19;;;-0.94;100.00
16834;BME280;8533;48.426;10.868;2023-01-26T00:48:33;96560.95;;;-0.89;100.00
16834;BME280;8533;48.426;10.868;2023-01-26T00:51:00;96557.56;;;-0.94;100.00
16834;BME280;8533;48.426;10.868;2023-01-26T00:53:27;96550.83;;;-0.95;100.00
16834;BME280;8533;48.426;10.868;2023-01-26T00:55:55;96554.84;;;-0.92;100.00
16834;BME280;8533;48.426;10.868;2023-01-26T00:58:23;96559.34;;;-0.90;100.00
16834;BME280;8533;48.426;10.868;2023-01-26T01:00:52;96563.19;;;-0.94;100.00
16834;BME280;8533;48.426;10.868;2023-01-26T01:03:20;96552.27;;;-0.96;100.00
16834;BME280;8533;48.426;10.868;2023-01-26T01:05:47;96545.53;;;-0.93;100.00
16834;BME280;8533;48.426;10.868;2023-01-26T01:08:14;96545.05;;;-0.97;100.00
16834;BME280;8533;48.426;10.868;2023-01-26T01:10:42;96538.31;;;-0.94;100.00
16834;BME280;8533;48.426;10.868;2023-01-26T01:13:09;96541.69;;;-0.93;100.00
16834;BME280;8533;48.426;10.868;2023-01-26T01:15:40;96542.33;;;-0.95;100.00
16834;BME280;8533;48.426;10.868;2023-01-26T01:18:07;96535.44;;;-1.03;100.00
16834;BME280;8533;48.426;10.868;2023-01-26T01:20:34;96534.02;;;-1.05;100.00
16834;BME280;8533;48.426;10.868;2023-01-26T01:23:03;96530.48;;;-1.08;100.00
16834;BME280;8533;48.426;10.868;2023-01-26T01:25:31;96529.20;;;-1.08;100.00
16834;BME280;8533;48.426;10.868;2023-01-26T01:27:59;96527.92;;;-1.08;100.00
16834;BME280;8533;48.426;10.868;2023-01-26T01:30:27;96524.71;;;-1.06;100.00
16834;BME280;8533;48.426;10.868;2023-01-26T01:32:54;96525.34;;;-1.08;100.00
16834;BME280;8533;48.426;10.868;2023-01-26T01:35:22;96522.46;;;-1.09;100.00
16834;BME280;8533;48.426;10.868;2023-01-26T01:37:49;96522.62;;;-1.11;100.00
16834;BME280;8533;48.426;10.868;2023-01-26T01:40:16;96516.70;;;-1.16;100.00
16834;BME280;8533;48.426;10.868;2023-01-26T01:42:47;96517.18;;;-1.16;100.00
16834;BME280;8533;48.426;10.868;2023-01-26T01:45:26;96517.66;;;-1.17;100.00
16834;BME280;8533;48.426;10.868;2023-01-26T01:47:49;96506.77;;;-1.14;100.00
16834;BME280;8533;48.426;10.868;2023-01-26T01:50:18;96504.98;;;-1.06;100.00
16834;BME280;8533;48.426;10.868;2023-01-26T01:52:45;96503.86;;;-1.07;100.00
16834;BME280;8533;48.426;10.868;2023-01-26T01:55:14;96507.55;;;-1.10;100.00
16834;BME280;8533;48.426;10.868;2023-01-26T01:57:48;96496.48;;;-1.19;100.00
16834;BME280;8533;48.426;10.868;2023-01-26T02:00:17;96503.25;;;-1.22;100.00
16834;BME280;8533;48.426;10.868;2023-01-26T02:02:48;96498.91;;;-1.25;100.00
16834;BME280;8533;48.426;10.868;2023-01-26T02:05:24;96498.27;;;-1.23;100.00
16834;BME280;8533;48.426;10.868;2023-01-26T02:07:52;96496.52;;;-1.23;100.00
16834;BME280;8533;48.426;10.868;2023-01-26T02:10:20;96493.28;;;-1.21;100.00
16834;BME280;8533;48.426;10.868;2023-01-26T02:12:50;96489.42;;;-1.21;100.00
16834;BME280;8533;48.426;10.868;2023-01-26T02:15:18;96481.73;;;-1.21;100.00
16834;BME280;8533;48.426;10.868;2023-01-26T02:17:46;96486.87;;;-1.29;100.00
16834;BME280;8533;48.426;10.868;2023-01-26T02:20:21;96484.50;;;-1.30;100.00
16834;BME280;8533;48.426;10.868;2023-01-26T02:22:53;96491.05;;;-1.28;100.00
16834;BME280;8533;48.426;10.868;2023-01-26T02:28:08;96479.51;;;-1.24;100.00
16834;BME280;8533;48.426;10.868;2023-01-26T02:30:35;96470.69;;;-1.25;100.00
16834;BME280;8533;48.426;10.868;2023-01-26T02:33:02;96465.39;;;-1.28;100.00
16834;BME280;8533;48.426;10.868;2023-01-26T02:35:30;96460.92;;;-1.30;100.00
16834;BME280;8533;48.426;10.868;2023-01-26T02:37:57;96459.64;;;-1.30;100.00
16834;BME280;8533;48.426;10.868;2023-01-26T02:40:42;96455.78;;;-1.22;100.00
16834;BME280;8533;48.426;10.868;2023-01-26T02:43:10;96448.22;;;-1.19;100.00
16834;BME280;8533;48.426;10.868;2023-01-26T02:45:40;96452.55;;;-1.16;100.00
16834;BME280;8533;48.426;10.868;2023-01-26T02:48:07;96452.37;;;-1.10;100.00
16834;BME280;8533;48.426;10.868;2023-01-26T02:50:35;96446.44;;;-1.06;100.00
16834;BME280;8533;48.426;10.868;2023-01-26T02:53:02;96443.36;;;-1.02;100.00
16834;BME280;8533;48.426;10.868;2023-01-26T02:55:30;96439.03;;;-1.01;100.00
16834;BME280;8533;48.426;10.868;2023-01-26T02:58:02;96435.19;;;-0.97;100.00
16834;BME280;8533;48.426;10.868;2023-01-26T03:00:32;96441.59;;;-1.01;100.00
16834;BME280;8533;48.426;10.868;2023-01-26T03:03:10;96445.13;;;-0.98;100.00
16834;BME280;8533;48.426;10.868;2023-01-26T03:05:33;96441.77;;;-0.99;100.00
16834;BME280;8533;48.426;10.868;2023-01-26T03:08:01;96437.45;;;-1.06;100.00
16834;BME280;8533;48.426;10.868;2023-01-26T03:10:30;96440.34;;;-1.05;100.00
16834;BME280;8533;48.426;10.868;2023-01-26T03:12:58;96439.22;;;-1.07;100.00
16834;BME280;8533;48.426;10.868;2023-01-26T03:15:26;96440.95;;;-1.03;100.00
16834;BME280;8533;48.426;10.868;2023-01-26T03:18:14;96439.19;;;-1.03;100.00
16834;BME280;8533;48.426;10.868;2023-01-26T03:21:05;96432.02;;;-1.16;100.00
16834;BME280;8533;48.426;10.868;2023-01-26T03:23:46;96428.17;;;-1.20;100.00
16834;BME280;8533;48.426;10.868;2023-01-26T03:26:32;96432.84;;;-1.23;100.00
16834;BME280;8533;48.426;10.868;2023-01-26T03:29:17;96433.17;;;-1.22;100.00
16834;BME280;8533;48.426;10.868;2023-01-26T03:31:45;96431.89;;;-1.22;100.00
16834;BME280;8533;48.426;10.868;2023-01-26T03:34:13;96426.75;;;-1.22;100.00
16834;BME280;8533;48.426;10.868;2023-01-26T03:36:40;96420.47;;;-1.20;100.00
16834;BME280;8533;48.426;10.868;2023-01-26T03:39:08;96428.98;;;-1.15;100.00
16834;BME280;8533;48.426;10.868;2023-01-26T03:41:37;96421.75;;;-1.20;100.00
16834;BME280;8533;48.426;10.868;2023-01-26T03:44:22;96416.95;;;-1.19;100.00
16834;BME280;8533;48.426;10.868;2023-01-26T03:47:07;96410.19;;;-1.11;100.00
16834;BME280;8533;48.426;10.868;2023-01-26T03:49:52;96408.91;;;-1.07;100.00
16834;BME280;8533;48.426;10.868;2023-01-26T03:52:37;96408.72;;;-1.02;100.00
16834;BME280;8533;48.426;10.868;2023-01-26T03:55:22;96411.47;;;-1.07;100.00
16834;BME280;8533;48.426;10.868;2023-01-26T03:58:07;96409.23;;;-1.10;100.00
16834;BME280;8533;48.426;10.868;2023-01-26T04:00:35;96410.67;;;-1.12;100.00
16834;BME280;8533;48.426;10.868;2023-01-26T04:03:02;96408.27;;;-1.05;100.00
16834;BME280;8533;48.426;10.868;2023-01-26T04:05:47;96405.70;;;-1.09;100.00
16834;BME280;8533;48.426;10.868;2023-01-26T04:08:32;96404.09;;;-1.10;100.00
16834;BME280;8533;48.426;10.868;2023-01-26T04:10:59;96406.17;;;-1.10;100.00
16834;BME280;8533;48.426;10.868;2023-01-26T04:13:27;96410.98;;;-1.11;100.00
16834;BME280;8533;48.426;10.868;2023-01-26T04:16:12;96410.34;;;-1.13;100.00
16834;BME280;8533;48.426;10.868;2023-01-26T04:18:57;96408.91;;;-1.07;100.00
16834;BME280;8533;48.426;10.868;2023-01-26T04:21:42;96405.08;;;-1.16;100.00
16834;BME280;8533;48.426;10.868;2023-01-26T04:24:09;96400.59;;;-1.18;100.00
16834;BME280;8533;48.426;10.868;2023-01-26T04:26:38;96397.70;;;-1.19;100.00
16834;BME280;8533;48.426;10.868;2023-01-26T04:29:11;96401.09;;;-1.22;100.00
16834;BME280;8533;48.426;10.868;2023-01-26T04:31:37;96401.26;;;-1.24;100.00
16834;BME280;8533;48.426;10.868;2023-01-26T04:34:06;96396.74;;;-1.18;100.00
16834;BME280;8533;48.426;10.868;2023-01-26T04:36:33;96390.94;;;-1.11;100.00
16834;BME280;8533;48.426;10.868;2023-01-26T04:39:01;96390.59;;;-1.04;100.00
16834;BME280;8533;48.426;10.868;2023-01-26T04:41:29;96392.67;;;-1.04;100.00
16834;BME280;8533;48.426;10.868;2023-01-26T04:43:58;96390.62;;;-1.12;100.00
16834;BME280;8533;48.426;10.868;2023-01-26T04:46:25;96396.39;;;-1.10;100.00
16834;BME280;8533;48.426;10.868;2023-01-26T04:48:52;96392.89;;;-1.13;100.00
16834;BME280;8533;48.426;10.868;2023-01-26T04:51:21;96395.91;;;-1.10;100.00
16834;BME280;8533;48.426;10.868;2023-01-26T04:53:48;96395.59;;;-1.07;100.00
16834;BME280;8533;48.426;10.868;2023-01-26T04:56:22;96393.83;;;-1.10;100.00
16834;BME280;8533;48.426;10.868;2023-01-26T04:58:50;96390.94;;;-1.11;100.00
16834;BME280;8533;48.426;10.868;2023-01-26T05:01:18;96392.25;;;-1.20;100.00
16834;BME280;8533;48.426;10.868;2023-01-26T05:03:45;96396.58;;;-1.16;100.00
16834;BME280;8533;48.426;10.868;2023-01-26T05:06:13;96396.91;;;-1.15;100.00
16834;BME280;8533;48.426;10.868;2023-01-26T05:08:41;96398.31;;;-1.12;100.00
16834;BME280;8533;48.426;10.868;2023-01-26T05:11:09;96392.89;;;-1.13;100.00
16834;BME280;8533;48.426;10.868;2023-01-26T05:13:36;96396.74;;;-1.13;100.00
16834;BME280;8533;48.426;10.868;2023-01-26T05:16:05;96396.91;;;-1.15;100.00
16834;BME280;8533;48.426;10.868;2023-01-26T05:18:33;96396.10;;;-1.16;100.00
16834;BME280;8533;48.426;10.868;2023-01-26T05:21:00;96395.45;;;-1.18;100.00
16834;BME280;8533;48.426;10.868;2023-01-26T05:23:28;96398.50;;;-1.18;100.00
16834;BME280;8533;48.426;10.868;2023-01-26T05:25:55;96394.81;;;-1.16;100.00
16834;BME280;8533;48.426;10.868;2023-01-26T05:28:22;96400.91;;;-1.17;100.00
16834;BME280;8533;48.426;10.868;2023-01-26T05:30:50;96397.38;;;-1.20;100.00
16834;BME280;8533;48.426;10.868;2023-01-26T05:33:17;96401.55;;;-1.19;100.00
16834;BME280;8533;48.426;10.868;2023-01-26T05:35:48;96400.45;;;-1.24;100.00
16834;BME280;8533;48.426;10.868;2023-01-26T05:38:16;96400.30;;;-1.23;100.00
16834;BME280;8533;48.426;10.868;2023-01-26T05:40:43;96408.48;;;-1.23;100.00
16834;BME280;8533;48.426;10.868;2023-01-26T05:43:11;96409.09;;;-1.21;100.00
16834;BME280;8533;48.426;10.868;2023-01-26T05:45:39;96407.99;;;-1.23;100.00
16834;BME280;8533;48.426;10.868;2023-01-26T05:48:07;96409.28;;;-1.23;100.00
16834;BME280;8533;48.426;10.868;2023-01-26T05:50:34;96407.80;;;-1.17;100.00
16834;BME280;8533;48.426;10.868;2023-01-26T05:53:02;96407.62;;;-1.11;100.00
16834;BME280;8533;48.426;10.868;2023-01-26T05:55:29;96407.80;;;-1.17;100.00
16834;BME280;8533;48.426;10.868;2023-01-26T05:57:56;96409.25;;;-1.19;100.00
16834;BME280;8533;48.426;10.868;2023-01-26T06:00:24;96406.36;;;-1.20;100.00
16834;BME280;8533;48.426;10.868;2023-01-26T06:02:51;96408.93;;;-1.16;100.00
16834;BME280;8533;48.426;10.868;2023-01-26T06:05:19;96410.53;;;-1.14;100.00
16834;BME280;8533;48.426;10.868;2023-01-26T06:07:46;96407.48;;;-1.14;100.00
16834;BME280;8533;48.426;10.868;2023-01-26T06:10:14;96413.23;;;-1.12;100.00
16834;BME280;8533;48.426;10.868;2023-01-26T06:12:41;96418.69;;;-1.11;100.00
16834;BME280;8533;48.426;10.868;2023-01-26T06:15:09;96420.77;;;-1.10;100.00
16834;BME280;8533;48.426;10.868;2023-01-26T06:17:38;96412.14;;;-1.13;100.00
16834;BME280;8533;48.426;10.868;2023-01-26T06:20:06;96413.58;;;-1.15;100.00
16834;BME280;8533;48.426;10.868;2023-01-26T06:22:34;96412.16;;;-1.22;100.00
16834;BME280;8533;48.426;10.868;2023-01-26T06:25:02;96414.89;;;-1.23;100.00
16834;BME280;8533;48.426;10.868;2023-01-26T06:27:29;96411.50;;;-1.20;100.00
16834;BME280;8533;48.426;10.868;2023-01-26T06:29:56;96410.37;;;-1.17;100.00
16834;BME280;8533;48.426;10.868;2023-01-26T06:32:24;96399.80;;;-1.14;100.00
16834;BME280;8533;48.426;10.868;2023-01-26T06:34:53;96401.55;;;-1.14;100.00
16834;BME280;8533;48.426;10.868;2023-01-26T06:37:20;96406.17;;;-1.10;100.00
16834;BME280;8533;48.426;10.868;2023-01-26T06:39:47;96402.97;;;-1.08;100.00
16834;BME280;8533;48.426;10.868;2023-01-26T06:42:15;96404.22;;;-1.04;100.00
16834;BME280;8533;48.426;10.868;2023-01-26T06:44:42;96409.52;;;-0.97;100.00
16834;BME280;8533;48.426;10.868;2023-01-26T06:47:10;96407.91;;;-0.98;100.00
16834;BME280;8533;48.426;10.868;2023-01-26T06:49:38;96404.44;;;-1.13;100.00
16834;BME280;8533;48.426;10.868;2023-01-26T06:52:30;96408.61;;;-1.17;100.00
16834;BME280;8533;48.426;10.868;2023-01-26T06:54:59;96403.96;;;-1.17;100.00
16834;BME280;8533;48.426;10.868;2023-01-26T06:57:27;96403.19;;;-1.22;100.00
16834;BME280;8533;48.426;10.868;2023-01-26T06:59:55;96405.23;;;-1.21;100.00
16834;BME280;8533;48.426;10.868;2023-01-26T07:02:23;96408.61;;;-1.21;100.00
16834;BME280;8533;48.426;10.868;2023-01-26T07:04:50;96403.80;;;-1.16;100.00
16834;BME280;8533;48.426;10.868;2023-01-26T07:07:18;96398.96;;;-1.10;100.00
16834;BME280;8533;48.426;10.868;2023-01-26T07:09:45;96404.44;;;-1.18;100.00
16834;BME280;8533;48.426;10.868;2023-01-26T07:12:12;96398.53;;;-1.22;100.00
16834;BME280;8533;48.426;10.868;2023-01-26T07:14:40;96397.41;;;-1.28;100.00
16834;BME280;8533;48.426;10.868;2023-01-26T07:17:07;96394.23;;;-1.30;100.00
16834;BME280;8533;48.426;10.868;2023-01-26T07:19:35;96387.78;;;-1.26;100.00
16834;BME280;8533;48.426;10.868;2023-01-26T07:22:02;96394.05;;;-1.24;100.00
16834;BME280;8533;48.426;10.868;2023-01-26T07:24:30;96389.36;;;-1.21;100.00
16834;BME280;8533;48.426;10.868;2023-01-26T07:26:57;96389.20;;;-1.15;100.00
16834;BME280;8533;48.426;10.868;2023-01-26T07:29:25;96386.96;;;-1.14;100.00
16834;BME280;8533;48.426;10.868;2023-01-26T07:31:52;96387.25;;;-1.09;100.00
16834;BME280;8533;48.426;10.868;2023-01-26T07:34:19;96389.02;;;-1.05;100.00
16834;BME280;8533;48.426;10.868;2023-01-26T07:36:50;96387.41;;;-1.06;100.00
16834;BME280;8533;48.426;10.868;2023-01-26T07:39:16;96387.73;;;-1.05;100.00
16834;BME280;8533;48.426;10.868;2023-01-26T07:41:43;96385.30;;;-0.99;100.00
16834;BME280;8533;48.426;10.868;2023-01-26T07:44:11;96386.58;;;-0.99;100.00
16834;BME280;8533;48.426;10.868;2023-01-26T07:46:38;96385.78;;;-1.03;100.00
16834;BME280;8533;48.426;10.868;2023-01-26T07:49:06;96381.61;;;-1.00;100.00
16834;BME280;8533;48.426;10.868;2023-01-26T07:51:35;96391.27;;;-1.06;100.00
16834;BME280;8533;48.426;10.868;2023-01-26T07:54:03;96383.11;;;-1.14;100.00
16834;BME280;8533;48.426;10.868;2023-01-26T07:56:30;96379.39;;;-1.11;100.00
16834;BME280;8533;48.426;10.868;2023-01-26T07:58:58;96384.69;;;-1.09;100.00
16834;BME280;8533;48.426;10.868;2023-01-26T08:01:26;96387.89;;;-1.07;100.00
16834;BME280;8533;48.426;10.868;2023-01-26T08:03:53;96381.00;;;-1.06;100.00
16834;BME280;8533;48.426;10.868;2023-01-26T08:06:21;96380.97;;;-1.02;100.00
16834;BME280;8533;48.426;10.868;2023-01-26T08:08:50;96378.11;;;-1.07;100.00
16834;BME280;8533;48.426;10.868;2023-01-26T08:11:20;96375.22;;;-1.08;100.00
16834;BME280;8533;48.426;10.868;2023-01-26T08:13:49;96373.91;;;-1.04;100.00
16834;BME280;8533;48.426;10.868;2023-01-26T08:16:17;96368.30;;;-1.04;100.00
16834;BME280;8533;48.426;10.868;2023-01-26T08:18:45;96371.70;;;-1.07;100.00
16834;BME280;8533;48.426;10.868;2023-01-26T08:21:14;96367.05;;;-1.12;100.00
16834;BME280;8533;48.426;10.868;2023-01-26T08:23:42;96364.16;;;-1.09;100.00
16834;BME280;8533;48.426;10.868;2023-01-26T08:26:11;96369.09;;;-1.03;100.00
16834;BME280;8533;48.426;10.868;2023-01-26T08:28:40;96360.91;;;-0.99;100.00
16834;BME280;8533;48.426;10.868;2023-01-26T08:31:10;96362.55;;;-1.06;100.00
16834;BME280;8533;48.426;10.868;2023-01-26T08:33:39;96358.86;;;-1.11;100.00
16834;BME280;8533;48.426;10.868;2023-01-26T08:36:13;96364.03;;;-1.16;100.00
16834;BME280;8533;48.426;10.868;2023-01-26T08:38:37;96369.80;;;-1.13;100.00
16834;BME280;8533;48.426;10.868;2023-01-26T08:41:05;96365.77;;;-1.12;100.00
16834;BME280;8533;48.426;10.868;2023-01-26T08:43:33;96370.09;;;-1.08;100.00
16834;BME280;8533;48.426;10.868;2023-01-26T08:46:00;96372.84;;;-1.14;100.00
16834;BME280;8533;48.426;10.868;2023-01-26T08:48:28;96365.31;;;-1.16;100.00
16834;BME280;8533;48.426;10.868;2023-01-26T08:50:59;96368.84;;;-1.17;100.00
16834;BME280;8533;48.426;10.868;2023-01-26T08:53:31;96364.03;;;-1.16;100.00
16834;BME280;8533;48.426;10.868;2023-01-26T08:56:03;96359.83;;;-1.12;100.00
16834;BME280;8533;48.426;10.868;2023-01-26T08:58:36;96359.19;;;-1.06;100.00
16834;BME280;8533;48.426;10.868;2023-01-26T09:01:05;96356.70;;;-0.96;100.00
16834;BME280;8533;48.426;10.868;2023-01-26T09:03:31;96353.62;;;-0.87;100.00
16834;BME280;8533;48.426;10.868;2023-01-26T09:05:59;96357.03;;;-0.95;100.00
16834;BME280;8533;48.426;10.868;2023-01-26T09:08:27;96358.79;;;-0.91;100.00
16834;BME280;8533;48.426;10.868;2023-01-26T09:10:56;96362.16;;;-0.95;100.00
16834;BME280;8533;48.426;10.868;2023-01-26T09:13:24;96364.84;;;-0.84;100.00
16834;BME280;8533;48.426;10.868;2023-01-26T09:15:51;96362.92;;;-0.86;100.00
16834;BME280;8533;48.426;10.868;2023-01-26T09:18:19;96368.05;;;-0.82;100.00
16834;BME280;8533;48.426;10.868;2023-01-26T09:20:46;96364.48;;;-0.77;100.00
16834;BME280;8533;48.426;10.868;2023-01-26T09:23:15;96366.89;;;-0.75;100.00
16834;BME280;8533;48.426;10.868;2023-01-26T09:25:44;96369.10;;;-0.72;100.00
16834;BME280;8533;48.426;10.868;2023-01-26T09:28:11;96371.34;;;-0.65;100.00
16834;BME280;8533;48.426;10.868;2023-01-26T09:30:38;96367.69;;;-0.75;100.00
16834;BME280;8533;48.426;10.868;2023-01-26T09:33:06;96375.08;;;-0.76;100.00
16834;BME280;8533;48.426;10.868;2023-01-26T09:35:33;96374.63;;;-0.84;100.00
16834;BME280;8533;48.426;10.868;2023-01-26T09:38:01;96368.49;;;-0.74;100.00
16834;BME280;8533;48.426;10.868;2023-01-26T09:40:44;96368.94;;;-0.67;100.00
16834;BME280;8533;48.426;10.868;2023-01-26T09:43:19;96367.49;;;-0.69;100.00
16834;BME280;8533;48.426;10.868;2023-01-26T09:45:53;96370.55;;;-0.70;100.00
16834;BME280;8533;48.426;10.868;2023-01-26T09:48:41;96368.98;;;-0.79;100.00
16834;BME280;8533;48.426;10.868;2023-01-26T09:51:09;96364.65;;;-0.79;100.00
16834;BME280;8533;48.426;10.868;2023-01-26T09:53:49;96369.70;;;-0.89;100.00
16834;BME280;8533;48.426;10.868;2023-01-26T09:56:18;96363.09;;;-0.88;100.00
16834;BME280;8533;48.426;10.868;2023-01-26T09:58:53;96362.44;;;-0.86;100.00
16834;BME280;8533;48.426;10.868;2023-01-26T10:01:42;96358.15;;;-0.93;100.00
16834;BME280;8533;48.426;10.868;2023-01-26T10:06:54;96356.74;;;-1.00;100.00
16834;BME280;8533;48.426;10.868;2023-01-26T10:09:25;96363.16;;;-1.00;100.00
16834;BME280;8533;48.426;10.868;2023-01-26T10:12:12;96362.64;;;-0.95;100.00
16834;BME280;8533;48.426;10.868;2023-01-26T10:14:37;96364.73;;;-0.95;100.00
16834;BME280;8533;48.426;10.868;2023-01-26T10:17:21;96363.31;;;-0.97;100.00
16834;BME280;8533;48.426;10.868;2023-01-26T10:19:44;96364.28;;;-0.98;100.00
16834;BME280;8533;48.426;10.868;2023-01-26T10:22:21;96361.36;;;-0.95;100.00
16834;BME280;8533;48.426;10.868;2023-01-26T10:24:48;96357.83;;;-0.94;100.00
16834;BME280;8533;48.426;10.868;2023-01-26T10:27:16;96354.10;;;-0.88;100.00
16834;BME280;8533;48.426;10.868;2023-01-26T10:29:45;96349.89;;;-0.81;100.00
16834;BME280;8533;48.426;10.868;2023-01-26T10:32:15;96352.93;;;-0.77;100.00
16834;BME280;8533;48.426;10.868;2023-01-26T10:34:45;96348.64;;;-0.85;100.00
16834;BME280;8533;48.426;10.868;2023-01-26T10:37:22;96353.61;;;-0.83;100.00
16834;BME280;8533;48.426;10.868;2023-01-26T10:40:01;96349.28;;;-0.87;100.00
16834;BME280;8533;48.426;10.868;2023-01-26T10:42:27;96346.23;;;-0.86;100.00
16834;BME280;8533;48.426;10.868;2023-01-26T10:44:56;96344.95;;;-0.82;100.00
16834;BME280;8533;48.426;10.868;2023-01-26T10:47:24;96335.06;;;-0.66;100.00
16834;BME280;8533;48.426;10.868;2023-01-26T10:50:06;96339.09;;;-0.72;100.00
16834;BME280;8533;48.426;10.868;2023-01-26T10:52:23;96334.63;;;-0.74;100.00
16834;BME280;8533;48.426;10.868;2023-01-26T10:55:11;96332.51;;;-0.70;100.00
16834;BME280;8533;48.426;10.868;2023-01-26T10:57:40;96333.34;;;-0.74;100.00
16834;BME280;8533;48.426;10.868;2023-01-26T11:00:26;96334.32;;;-0.79;100.00
16834;BME280;8533;48.426;10.868;2023-01-26T11:05:41;96338.53;;;-0.86;100.00
16834;BME280;8533;48.426;10.868;2023-01-26T11:08:37;96336.17;;;-0.92;100.00
16834;BME280;8533;48.426;10.868;2023-01-26T11:10:51;96334.36;;;-0.87;100.00
16834;BME280;8533;48.426;10.868;2023-01-26T11:13:20;96331.44;;;-0.80;100.00
16834;BME280;8533;48.426;10.868;2023-01-26T11:15:49;96338.53;;;-0.86;100.00
16834;BME280;8533;48.426;10.868;2023-01-26T11:18:31;96336.97;;;-0.91;100.00
16834;BME280;8533;48.426;10.868;2023-01-26T11:20:57;96335.92;;;-0.78;100.00
16834;BME280;8533;48.426;10.868;2023-01-26T11:26:36;96333.74;;;-0.62;100.00
16834;BME280;8533;48.426;10.868;2023-01-26T11:29:23;96339.31;;;-0.55;100.00
16834;BME280;8533;48.426;10.868;2023-01-26T11:39:56;96328.95;;;-0.92;100.00
16834;BME280;8533;48.426;10.868;2023-01-26T11:42:29;96328.16;;;-0.97;100.00
16834;BME280;8533;48.426;10.868;2023-01-26T11:45:10;96329.27;;;-0.91;100.00
16834;BME280;8533;48.426;10.868;2023-01-26T11:50:15;96323.29;;;-0.84;100.00
16834;BME280;8533;48.426;10.868;2023-01-26T11:58:38;96314.22;;;-0.71;100.00
16834;BME280;8533;48.426;10.868;2023-01-26T12:01:06;96310.94;;;-0.84;100.00
16834;BME280;8533;48.426;10.868;2023-01-26T12:03:49;96309.45;;;-0.79;100.00
16834;BME280;8533;48.426;10.868;2023-01-26T12:06:23;96301.53;;;-0.69;100.00
16834;BME280;8533;48.426;10.868;2023-01-26T12:08:55;96300.19;;;-0.61;100.00
16834;BME280;8533;48.426;10.868;2023-01-26T12:11:31;96294.20;;;-0.53;100.00
16834;BME280;8533;48.426;10.868;2023-01-26T12:14:02;96292.75;;;-0.52;100.00
16834;BME280;8533;48.426;10.868;2023-01-26T12:16:54;96285.05;;;-0.56;100.00
16834;BME280;8533;48.426;10.868;2023-01-26T12:19:30;96286.87;;;-0.60;100.00
16834;BME280;8533;48.426;10.868;2023-01-26T12:21:56;96281.45;;;-0.65;100.00
16834;BME280;8533;48.426;10.868;2023-01-26T12:24:36;96286.98;;;-0.81;100.00
16834;BME280;8533;48.426;10.868;2023-01-26T12:27:04;96286.98;;;-0.81;100.00
16834;BME280;8533;48.426;10.868;2023-01-26T12:29:48;96284.69;;;-0.71;100.00
16834;BME280;8533;48.426;10.868;2023-01-26T12:32:12;96280.30;;;-0.63;100.00
16834;BME280;8533;48.426;10.868;2023-01-26T12:34:42;96277.34;;;-0.56;100.00
16834;BME280;8533;48.426;10.868;2023-01-26T12:37:24;96272.03;;;-0.50;100.00
16834;BME280;8533;48.426;10.868;2023-01-26T12:39:56;96270.42;;;-0.51;100.00
16834;BME280;8533;48.426;10.868;2023-01-26T12:45:00;96262.23;;;-0.51;100.00
16834;BME280;8533;48.426;10.868;2023-01-26T12:47:46;96262.51;;;-0.46;100.00
16834;BME280;8533;48.426;10.868;2023-01-26T12:58:52;96256.05;;;-0.60;100.00
16834;BME280;8533;48.426;10.868;2023-01-26T13:01:22;96247.86;;;-0.60;100.00
16834;BME280;8533;48.426;10.868;2023-01-26T13:04:00;96247.14;;;-0.50;100.00
16834;BME280;8533;48.426;10.868;2023-01-26T13:06:28;96248.86;;;-0.46;100.00
16834;BME280;8533;48.426;10.868;2023-01-26T13:11:43;96241.33;;;-0.48;100.00
16834;BME280;8533;48.426;10.868;2023-01-26T13:25:11;96246.09;;;-0.59;100.00
16834;BME280;8533;48.426;10.868;2023-01-26T13:33:39;96246.30;;;-0.65;100.00
16834;BME280;8533;48.426;10.868;2023-01-26T13:35:25;96237.38;;;-0.73;100.00
16834;BME280;8533;48.426;10.868;2023-01-26T13:38:06;96241.89;;;-0.79;100.00
16834;BME280;8533;48.426;10.868;2023-01-26T13:40:33;96250.08;;;-0.80;100.00
16834;BME280;8533;48.426;10.868;2023-01-26T13:48:47;96244.46;;;-0.79;100.00
16834;BME280;8533;48.426;10.868;2023-01-26T13:51:23;96242.92;;;-0.88;100.00
16834;BME280;8533;48.426;10.868;2023-01-26T13:54:02;96244.84;;;-0.86;100.00
16834;BME280;8533;48.426;10.868;2023-01-26T13:56:33;96241.83;;;-0.90;100.00
16834;BME280;8533;48.426;10.868;2023-01-26T13:59:14;96247.72;;;-0.85;100.00
16834;BME280;8533;48.426;10.868;2023-01-26T14:04:19;96238.66;;;-0.73;100.00
16834;BME280;8533;48.426;10.868;2023-01-26T14:06:58;96237.08;;;-0.78;100.00
16834;BME280;8533;48.426;10.868;2023-01-26T14:09:26;96240.30;;;-0.80;100.00
16834;BME280;8533;48.426;10.868;2023-01-26T14:12:03;96239.33;;;-0.79;100.00
16834;BME280;8533;48.426;10.868;2023-01-26T14:14:34;96242.52;;;-0.73;100.00